sensor_id;sensor_type;location;lat;lon;timestamp;P1;durP1;ratioP1;P2;durP2;ratioP2
73980;SDS011;62348;51.412;5.436;2023-06-26T00:02:23;9.50;;;8.60;;
73980;SDS011;62348;51.412;5.436;2023-06-26T00:04:49;9.90;;;8.77;;
73980;SDS011;62348;51.412;5.436;2023-06-26T00:07:18;10.38;;;9.38;;
73980;SDS011;62348;51.412;5.436;2023-06-26T00:09:44;10.20;;;8.57;;
73980;SDS011;62348;51.412;5.436;2023-06-26T00:12:09;10.10;;;8.63;;
73980;SDS011;62348;51.412;5.436;2023-06-26T00:14:35;9.68;;;8.77;;
73980;SDS011;62348;51.412;5.436;2023-06-26T00:17:00;9.52;;;8.63;;
73980;SDS011;62348;51.412;5.436;2023-06-26T00:19:26;10.05;;;8.20;;
73980;SDS011;62348;51.412;5.436;2023-06-26T00:21:51;8.70;;;7.80;;
73980;SDS011;62348;51.412;5.436;2023-06-26T00:24:17;9.38;;;8.52;;
73980;SDS011;62348;51.412;5.436;2023-06-26T00:26:45;10.25;;;9.18;;
73980;SDS011;62348;51.412;5.436;2023-06-26T00:29:12;15.73;;;8.68;;
73980;SDS011;62348;51.412;5.436;2023-06-26T00:31:37;9.38;;;8.48;;
73980;SDS011;62348;51.412;5.436;2023-06-26T00:34:05;8.23;;;7.53;;
73980;SDS011;62348;51.412;5.436;2023-06-26T00:36:30;8.82;;;7.93;;
73980;SDS011;62348;51.412;5.436;2023-06-26T00:38:56;9.00;;;7.60;;
73980;SDS011;62348;51.412;5.436;2023-06-26T00:41:21;8.77;;;7.95;;
73980;SDS011;62348;51.412;5.436;2023-06-26T00:43:46;10.25;;;7.82;;
73980;SDS011;62348;51.412;5.436;2023-06-26T00:46:12;8.68;;;7.82;;
73980;SDS011;62348;51.412;5.436;2023-06-26T00:48:39;8.90;;;7.97;;
73980;SDS011;62348;51.412;5.436;2023-06-26T00:51:07;8.32;;;7.53;;
73980;SDS011;62348;51.412;5.436;2023-06-26T00:53:33;9.20;;;7.55;;
73980;SDS011;62348;51.412;5.436;2023-06-26T00:55:59;10.32;;;7.82;;
73980;SDS011;62348;51.412;5.436;2023-06-26T00:58:26;7.28;;;6.57;;
73980;SDS011;62348;51.412;5.436;2023-06-26T01:00:52;8.93;;;6.70;;
73980;SDS011;62348;51.412;5.436;2023-06-26T01:03:18;11.82;;;7.30;;
73980;SDS011;62348;51.412;5.436;2023-06-26T01:05:52;8.15;;;7.30;;
73980;SDS011;62348;51.412;5.436;2023-06-26T01:08:21;9.38;;;7.25;;
73980;SDS011;62348;51.412;5.436;2023-06-26T01:10:47;8.13;;;7.43;;
73980;SDS011;62348;51.412;5.436;2023-06-26T01:13:13;9.10;;;6.53;;
73980;SDS011;62348;51.412;5.436;2023-06-26T01:15:40;7.75;;;6.68;;
73980;SDS011;62348;51.412;5.436;2023-06-26T01:18:05;7.65;;;6.28;;
73980;SDS011;62348;51.412;5.436;2023-06-26T01:20:35;8.40;;;6.75;;
73980;SDS011;62348;51.412;5.436;2023-06-26T01:28:43;8.50;;;6.00;;
73980;SDS011;62348;51.412;5.436;2023-06-26T01:31:10;7.25;;;5.40;;
73980;SDS011;62348;51.412;5.436;2023-06-26T01:33:36;7.10;;;5.32;;
73980;SDS011;62348;51.412;5.436;2023-06-26T01:36:03;7.25;;;5.60;;
73980;SDS011;62348;51.412;5.436;2023-06-26T01:38:28;10.20;;;5.70;;
73980;SDS011;62348;51.412;5.436;2023-06-26T01:40:54;5.50;;;4.63;;
73980;SDS011;62348;51.412;5.436;2023-06-26T01:46:15;6.60;;;4.97;;
73980;SDS011;62348;51.412;5.436;2023-06-26T01:49:06;6.93;;;5.28;;
73980;SDS011;62348;51.412;5.436;2023-06-26T01:51:34;6.22;;;5.25;;
73980;SDS011;62348;51.412;5.436;2023-06-26T01:54:03;8.02;;;5.38;;
73980;SDS011;62348;51.412;5.436;2023-06-26T01:56:34;7.55;;;5.40;;
73980;SDS011;62348;51.412;5.436;2023-06-26T01:59:03;6.43;;;4.93;;
73980;SDS011;62348;51.412;5.436;2023-06-26T02:01:31;6.65;;;4.80;;
73980;SDS011;62348;51.412;5.436;2023-06-26T02:03:58;7.03;;;5.45;;
73980;SDS011;62348;51.412;5.436;2023-06-26T02:06:24;5.97;;;5.25;;
73980;SDS011;62348;51.412;5.436;2023-06-26T02:08:49;7.25;;;5.40;;
73980;SDS011;62348;51.412;5.436;2023-06-26T02:11:15;8.38;;;5.03;;
73980;SDS011;62348;51.412;5.436;2023-06-26T02:13:40;5.28;;;4.55;;
73980;SDS011;62348;51.412;5.436;2023-06-26T02:16:05;9.25;;;5.10;;
73980;SDS011;62348;51.412;5.436;2023-06-26T02:18:31;6.93;;;5.15;;
73980;SDS011;62348;51.412;5.436;2023-06-26T02:20:56;8.48;;;4.43;;
73980;SDS011;62348;51.412;5.436;2023-06-26T02:23:22;7.60;;;4.63;;
73980;SDS011;62348;51.412;5.436;2023-06-26T02:25:47;7.72;;;4.85;;
73980;SDS011;62348;51.412;5.436;2023-06-26T02:28:12;7.97;;;4.85;;
73980;SDS011;62348;51.412;5.436;2023-06-26T02:30:38;6.70;;;4.55;;
73980;SDS011;62348;51.412;5.436;2023-06-26T02:33:03;6.43;;;4.53;;
73980;SDS011;62348;51.412;5.436;2023-06-26T02:35:28;8.27;;;4.85;;
73980;SDS011;62348;51.412;5.436;2023-06-26T02:37:54;6.00;;;5.20;;
73980;SDS011;62348;51.412;5.436;2023-06-26T02:40:19;9.43;;;4.55;;
73980;SDS011;62348;51.412;5.436;2023-06-26T02:42:45;7.95;;;4.55;;
73980;SDS011;62348;51.412;5.436;2023-06-26T02:45:10;7.20;;;4.82;;
73980;SDS011;62348;51.412;5.436;2023-06-26T02:47:35;9.95;;;4.63;;
73980;SDS011;62348;51.412;5.436;2023-06-26T02:50:04;11.02;;;5.30;;
73980;SDS011;62348;51.412;5.436;2023-06-26T02:52:31;9.45;;;4.95;;
73980;SDS011;62348;51.412;5.436;2023-06-26T02:54:56;6.85;;;4.50;;
73980;SDS011;62348;51.412;5.436;2023-06-26T02:57:21;10.13;;;4.75;;
73980;SDS011;62348;51.412;5.436;2023-06-26T02:59:47;6.47;;;4.22;;
73980;SDS011;62348;51.412;5.436;2023-06-26T03:02:12;10.02;;;4.45;;
73980;SDS011;62348;51.412;5.436;2023-06-26T03:04:38;7.18;;;4.18;;
73980;SDS011;62348;51.412;5.436;2023-06-26T03:07:03;7.07;;;4.63;;
73980;SDS011;62348;51.412;5.436;2023-06-26T03:09:29;11.15;;;4.75;;
73980;SDS011;62348;51.412;5.436;2023-06-26T03:11:54;6.82;;;4.25;;
73980;SDS011;62348;51.412;5.436;2023-06-26T03:14:20;9.27;;;5.30;;
73980;SDS011;62348;51.412;5.436;2023-06-26T03:16:46;7.43;;;4.18;;
73980;SDS011;62348;51.412;5.436;2023-06-26T03:19:11;8.77;;;4.35;;
73980;SDS011;62348;51.412;5.436;2023-06-26T03:21:37;7.20;;;4.60;;
73980;SDS011;62348;51.412;5.436;2023-06-26T03:24:02;10.05;;;4.45;;
73980;SDS011;62348;51.412;5.436;2023-06-26T03:26:28;10.02;;;4.80;;
73980;SDS011;62348;51.412;5.436;2023-06-26T03:28:54;7.30;;;4.80;;
73980;SDS011;62348;51.412;5.436;2023-06-26T03:31:19;6.88;;;4.45;;
73980;SDS011;62348;51.412;5.436;2023-06-26T03:33:45;7.60;;;4.47;;
73980;SDS011;62348;51.412;5.436;2023-06-26T03:36:12;7.93;;;4.45;;
73980;SDS011;62348;51.412;5.436;2023-06-26T03:38:37;8.45;;;4.13;;
73980;SDS011;62348;51.412;5.436;2023-06-26T03:41:03;11.25;;;4.85;;
73980;SDS011;62348;51.412;5.436;2023-06-26T03:43:28;7.68;;;4.47;;
73980;SDS011;62348;51.412;5.436;2023-06-26T03:45:54;11.55;;;5.20;;
73980;SDS011;62348;51.412;5.436;2023-06-26T03:48:19;8.77;;;4.53;;
73980;SDS011;62348;51.412;5.436;2023-06-26T03:50:45;7.50;;;4.40;;
73980;SDS011;62348;51.412;5.436;2023-06-26T03:53:10;9.60;;;4.82;;
73980;SDS011;62348;51.412;5.436;2023-06-26T03:55:36;11.13;;;5.35;;
73980;SDS011;62348;51.412;5.436;2023-06-26T03:58:03;9.75;;;5.50;;
73980;SDS011;62348;51.412;5.436;2023-06-26T04:00:29;7.45;;;4.93;;
73980;SDS011;62348;51.412;5.436;2023-06-26T04:02:55;12.82;;;5.28;;
73980;SDS011;62348;51.412;5.436;2023-06-26T04:05:20;9.23;;;5.60;;
73980;SDS011;62348;51.412;5.436;2023-06-26T04:07:50;7.72;;;5.18;;
73980;SDS011;62348;51.412;5.436;2023-06-26T04:10:16;11.73;;;5.60;;
73980;SDS011;62348;51.412;5.436;2023-06-26T04:12:41;12.55;;;5.82;;
73980;SDS011;62348;51.412;5.436;2023-06-26T04:15:07;11.40;;;5.00;;
73980;SDS011;62348;51.412;5.436;2023-06-26T04:17:33;11.77;;;5.13;;
73980;SDS011;62348;51.412;5.436;2023-06-26T04:19:58;8.98;;;5.78;;
73980;SDS011;62348;51.412;5.436;2023-06-26T04:22:23;10.65;;;5.93;;
73980;SDS011;62348;51.412;5.436;2023-06-26T04:24:50;11.20;;;5.43;;
73980;SDS011;62348;51.412;5.436;2023-06-26T04:27:15;8.25;;;5.30;;
73980;SDS011;62348;51.412;5.436;2023-06-26T04:29:41;10.38;;;5.38;;
73980;SDS011;62348;51.412;5.436;2023-06-26T04:32:07;17.23;;;6.32;;
73980;SDS011;62348;51.412;5.436;2023-06-26T04:34:32;11.25;;;5.55;;
73980;SDS011;62348;51.412;5.436;2023-06-26T04:36:59;15.15;;;5.93;;
73980;SDS011;62348;51.412;5.436;2023-06-26T04:39:24;17.15;;;6.05;;
73980;SDS011;62348;51.412;5.436;2023-06-26T04:41:50;18.33;;;6.45;;
73980;SDS011;62348;51.412;5.436;2023-06-26T04:44:15;11.35;;;5.90;;
73980;SDS011;62348;51.412;5.436;2023-06-26T04:46:41;10.02;;;5.32;;
73980;SDS011;62348;51.412;5.436;2023-06-26T04:49:09;15.77;;;6.20;;
73980;SDS011;62348;51.412;5.436;2023-06-26T04:51:35;12.30;;;5.25;;
73980;SDS011;62348;51.412;5.436;2023-06-26T04:54:09;13.15;;;5.72;;
73980;SDS011;62348;51.412;5.436;2023-06-26T04:56:35;18.00;;;5.20;;
73980;SDS011;62348;51.412;5.436;2023-06-26T04:59:01;14.70;;;5.38;;
73980;SDS011;62348;51.412;5.436;2023-06-26T05:01:28;19.25;;;6.13;;
73980;SDS011;62348;51.412;5.436;2023-06-26T05:03:55;20.00;;;5.90;;
73980;SDS011;62348;51.412;5.436;2023-06-26T05:06:21;16.15;;;6.60;;
73980;SDS011;62348;51.412;5.436;2023-06-26T05:08:47;17.73;;;5.60;;
73980;SDS011;62348;51.412;5.436;2023-06-26T05:11:12;20.23;;;6.05;;
73980;SDS011;62348;51.412;5.436;2023-06-26T05:13:38;14.38;;;5.45;;
73980;SDS011;62348;51.412;5.436;2023-06-26T05:16:03;16.77;;;5.55;;
73980;SDS011;62348;51.412;5.436;2023-06-26T05:18:29;15.40;;;5.47;;
73980;SDS011;62348;51.412;5.436;2023-06-26T05:20:54;11.57;;;5.18;;
73980;SDS011;62348;51.412;5.436;2023-06-26T05:23:20;12.80;;;4.75;;
73980;SDS011;62348;51.412;5.436;2023-06-26T05:25:46;18.80;;;5.40;;
73980;SDS011;62348;51.412;5.436;2023-06-26T05:28:12;14.55;;;4.82;;
73980;SDS011;62348;51.412;5.436;2023-06-26T05:30:38;14.25;;;5.35;;
73980;SDS011;62348;51.412;5.436;2023-06-26T05:33:04;13.48;;;5.47;;
73980;SDS011;62348;51.412;5.436;2023-06-26T05:35:31;13.35;;;4.95;;
73980;SDS011;62348;51.412;5.436;2023-06-26T05:37:57;17.70;;;5.97;;
73980;SDS011;62348;51.412;5.436;2023-06-26T05:40:23;9.55;;;4.88;;
73980;SDS011;62348;51.412;5.436;2023-06-26T05:42:49;14.35;;;4.60;;
73980;SDS011;62348;51.412;5.436;2023-06-26T05:45:15;13.27;;;4.50;;
73980;SDS011;62348;51.412;5.436;2023-06-26T05:47:41;14.75;;;4.85;;
73980;SDS011;62348;51.412;5.436;2023-06-26T05:50:08;14.77;;;4.30;;
73980;SDS011;62348;51.412;5.436;2023-06-26T05:52:34;8.60;;;3.53;;
73980;SDS011;62348;51.412;5.436;2023-06-26T05:55:00;12.25;;;4.13;;
73980;SDS011;62348;51.412;5.436;2023-06-26T05:57:27;13.65;;;3.95;;
73980;SDS011;62348;51.412;5.436;2023-06-26T05:59:53;12.80;;;4.57;;
73980;SDS011;62348;51.412;5.436;2023-06-26T06:02:19;10.80;;;4.07;;
73980;SDS011;62348;51.412;5.436;2023-06-26T06:04:45;17.77;;;4.65;;
73980;SDS011;62348;51.412;5.436;2023-06-26T06:07:10;12.30;;;4.95;;
73980;SDS011;62348;51.412;5.436;2023-06-26T06:09:35;15.55;;;4.90;;
73980;SDS011;62348;51.412;5.436;2023-06-26T06:12:01;12.15;;;3.88;;
73980;SDS011;62348;51.412;5.436;2023-06-26T06:14:28;14.55;;;4.22;;
73980;SDS011;62348;51.412;5.436;2023-06-26T06:16:54;15.52;;;4.00;;
73980;SDS011;62348;51.412;5.436;2023-06-26T06:19:19;11.45;;;3.78;;
73980;SDS011;62348;51.412;5.436;2023-06-26T06:21:44;11.15;;;3.63;;
73980;SDS011;62348;51.412;5.436;2023-06-26T06:24:10;14.65;;;3.70;;
73980;SDS011;62348;51.412;5.436;2023-06-26T06:26:35;12.70;;;4.10;;
73980;SDS011;62348;51.412;5.436;2023-06-26T06:29:01;10.40;;;4.07;;
73980;SDS011;62348;51.412;5.436;2023-06-26T06:31:26;10.15;;;3.50;;
73980;SDS011;62348;51.412;5.436;2023-06-26T06:33:53;9.95;;;3.50;;
73980;SDS011;62348;51.412;5.436;2023-06-26T06:36:19;11.90;;;3.17;;
73980;SDS011;62348;51.412;5.436;2023-06-26T06:38:45;11.82;;;3.17;;
73980;SDS011;62348;51.412;5.436;2023-06-26T06:41:10;11.68;;;4.05;;
73980;SDS011;62348;51.412;5.436;2023-06-26T06:43:36;10.90;;;3.28;;
73980;SDS011;62348;51.412;5.436;2023-06-26T06:46:01;10.13;;;3.85;;
73980;SDS011;62348;51.412;5.436;2023-06-26T06:48:27;15.73;;;2.90;;
73980;SDS011;62348;51.412;5.436;2023-06-26T06:50:53;11.88;;;2.90;;
73980;SDS011;62348;51.412;5.436;2023-06-26T06:53:18;9.68;;;2.78;;
73980;SDS011;62348;51.412;5.436;2023-06-26T06:55:46;7.57;;;3.00;;
73980;SDS011;62348;51.412;5.436;2023-06-26T06:58:12;6.93;;;2.80;;
73980;SDS011;62348;51.412;5.436;2023-06-26T07:00:37;7.32;;;2.60;;
73980;SDS011;62348;51.412;5.436;2023-06-26T07:03:03;11.00;;;3.47;;
73980;SDS011;62348;51.412;5.436;2023-06-26T07:05:29;12.60;;;3.28;;
73980;SDS011;62348;51.412;5.436;2023-06-26T07:07:54;8.18;;;2.80;;
73980;SDS011;62348;51.412;5.436;2023-06-26T07:10:20;9.77;;;2.70;;
73980;SDS011;62348;51.412;5.436;2023-06-26T07:12:45;6.70;;;2.78;;
73980;SDS011;62348;51.412;5.436;2023-06-26T07:15:10;6.47;;;2.30;;
73980;SDS011;62348;51.412;5.436;2023-06-26T07:17:36;7.20;;;2.85;;
73980;SDS011;62348;51.412;5.436;2023-06-26T07:20:03;10.00;;;2.53;;
73980;SDS011;62348;51.412;5.436;2023-06-26T07:22:32;6.68;;;2.42;;
73980;SDS011;62348;51.412;5.436;2023-06-26T07:24:57;7.88;;;2.70;;
73980;SDS011;62348;51.412;5.436;2023-06-26T07:27:23;5.80;;;2.65;;
73980;SDS011;62348;51.412;5.436;2023-06-26T07:29:48;5.82;;;2.83;;
73980;SDS011;62348;51.412;5.436;2023-06-26T07:32:13;4.30;;;2.22;;
73980;SDS011;62348;51.412;5.436;2023-06-26T07:34:39;6.47;;;2.30;;
73980;SDS011;62348;51.412;5.436;2023-06-26T07:37:04;6.22;;;2.85;;
73980;SDS011;62348;51.412;5.436;2023-06-26T07:39:30;2.72;;;1.80;;
73980;SDS011;62348;51.412;5.436;2023-06-26T07:41:55;10.80;;;2.53;;
73980;SDS011;62348;51.412;5.436;2023-06-26T07:44:24;7.40;;;2.42;;
73980;SDS011;62348;51.412;5.436;2023-06-26T07:46:49;5.45;;;2.45;;
73980;SDS011;62348;51.412;5.436;2023-06-26T07:49:14;6.18;;;2.10;;
73980;SDS011;62348;51.412;5.436;2023-06-26T07:51:40;6.47;;;2.58;;
73980;SDS011;62348;51.412;5.436;2023-06-26T07:54:05;6.20;;;2.42;;
73980;SDS011;62348;51.412;5.436;2023-06-26T07:56:31;5.97;;;2.55;;
73980;SDS011;62348;51.412;5.436;2023-06-26T07:58:56;5.07;;;2.30;;
73980;SDS011;62348;51.412;5.436;2023-06-26T08:01:26;6.97;;;1.80;;
73980;SDS011;62348;51.412;5.436;2023-06-26T08:03:51;12.93;;;4.25;;
73980;SDS011;62348;51.412;5.436;2023-06-26T08:06:17;5.57;;;2.17;;
73980;SDS011;62348;51.412;5.436;2023-06-26T08:08:43;9.10;;;3.47;;
73980;SDS011;62348;51.412;5.436;2023-06-26T08:11:09;5.82;;;1.80;;
73980;SDS011;62348;51.412;5.436;2023-06-26T08:13:34;7.30;;;2.65;;
73980;SDS011;62348;51.412;5.436;2023-06-26T08:15:59;9.48;;;2.95;;
73980;SDS011;62348;51.412;5.436;2023-06-26T08:18:25;5.10;;;2.95;;
73980;SDS011;62348;51.412;5.436;2023-06-26T08:20:50;4.45;;;1.80;;
73980;SDS011;62348;51.412;5.436;2023-06-26T08:23:16;8.20;;;1.83;;
73980;SDS011;62348;51.412;5.436;2023-06-26T08:25:41;8.88;;;1.88;;
73980;SDS011;62348;51.412;5.436;2023-06-26T08:28:06;10.48;;;2.13;;
73980;SDS011;62348;51.412;5.436;2023-06-26T08:30:32;4.32;;;1.80;;
73980;SDS011;62348;51.412;5.436;2023-06-26T08:32:57;5.68;;;1.70;;
73980;SDS011;62348;51.412;5.436;2023-06-26T08:35:23;3.65;;;1.23;;
73980;SDS011;62348;51.412;5.436;2023-06-26T08:37:49;6.18;;;1.98;;
73980;SDS011;62348;51.412;5.436;2023-06-26T08:40:16;4.63;;;1.52;;
73980;SDS011;62348;51.412;5.436;2023-06-26T08:42:43;4.38;;;1.33;;
73980;SDS011;62348;51.412;5.436;2023-06-26T08:45:08;6.25;;;1.17;;
73980;SDS011;62348;51.412;5.436;2023-06-26T08:47:34;3.85;;;1.00;;
73980;SDS011;62348;51.412;5.436;2023-06-26T08:50:10;4.15;;;1.33;;
73980;SDS011;62348;51.412;5.436;2023-06-26T08:52:50;2.15;;;1.05;;
73980;SDS011;62348;51.412;5.436;2023-06-26T08:55:25;4.80;;;1.58;;
73980;SDS011;62348;51.412;5.436;2023-06-26T08:57:53;2.78;;;1.13;;
73980;SDS011;62348;51.412;5.436;2023-06-26T09:00:19;7.07;;;1.83;;
73980;SDS011;62348;51.412;5.436;2023-06-26T09:02:45;4.28;;;1.40;;
73980;SDS011;62348;51.412;5.436;2023-06-26T09:05:11;5.47;;;1.63;;
73980;SDS011;62348;51.412;5.436;2023-06-26T09:07:36;4.20;;;1.40;;
73980;SDS011;62348;51.412;5.436;2023-06-26T09:10:02;4.53;;;1.40;;
73980;SDS011;62348;51.412;5.436;2023-06-26T09:12:27;4.32;;;2.13;;
73980;SDS011;62348;51.412;5.436;2023-06-26T09:14:54;6.10;;;1.30;;
73980;SDS011;62348;51.412;5.436;2023-06-26T09:17:24;5.35;;;1.48;;
73980;SDS011;62348;51.412;5.436;2023-06-26T09:19:54;4.47;;;1.27;;
73980;SDS011;62348;51.412;5.436;2023-06-26T09:22:19;2.55;;;1.15;;
73980;SDS011;62348;51.412;5.436;2023-06-26T09:24:44;7.03;;;1.48;;
73980;SDS011;62348;51.412;5.436;2023-06-26T09:27:10;3.97;;;1.15;;
73980;SDS011;62348;51.412;5.436;2023-06-26T09:29:36;3.40;;;1.45;;
73980;SDS011;62348;51.412;5.436;2023-06-26T09:32:02;2.70;;;1.17;;
73980;SDS011;62348;51.412;5.436;2023-06-26T09:34:31;2.88;;;1.00;;
73980;SDS011;62348;51.412;5.436;2023-06-26T09:36:58;4.20;;;1.02;;
73980;SDS011;62348;51.412;5.436;2023-06-26T09:39:24;4.68;;;1.45;;
73980;SDS011;62348;51.412;5.436;2023-06-26T09:41:49;3.15;;;0.93;;
73980;SDS011;62348;51.412;5.436;2023-06-26T09:44:15;3.45;;;1.27;;
73980;SDS011;62348;51.412;5.436;2023-06-26T09:46:41;7.82;;;1.70;;
73980;SDS011;62348;51.412;5.436;2023-06-26T09:49:10;2.35;;;0.90;;
73980;SDS011;62348;51.412;5.436;2023-06-26T09:51:37;2.50;;;1.20;;
73980;SDS011;62348;51.412;5.436;2023-06-26T09:54:04;3.58;;;1.20;;
73980;SDS011;62348;51.412;5.436;2023-06-26T09:56:31;4.85;;;1.10;;
73980;SDS011;62348;51.412;5.436;2023-06-26T09:58:58;5.35;;;1.40;;
73980;SDS011;62348;51.412;5.436;2023-06-26T10:01:25;3.20;;;0.80;;
73980;SDS011;62348;51.412;5.436;2023-06-26T10:03:51;2.35;;;0.95;;
73980;SDS011;62348;51.412;5.436;2023-06-26T10:06:36;2.67;;;0.93;;
73980;SDS011;62348;51.412;5.436;2023-06-26T10:09:06;7.20;;;1.27;;
73980;SDS011;62348;51.412;5.436;2023-06-26T10:14:26;3.55;;;1.00;;
73980;SDS011;62348;51.412;5.436;2023-06-26T10:16:55;3.83;;;0.60;;
73980;SDS011;62348;51.412;5.436;2023-06-26T10:19:26;3.60;;;0.93;;
73980;SDS011;62348;51.412;5.436;2023-06-26T10:21:53;2.45;;;1.00;;
73980;SDS011;62348;51.412;5.436;2023-06-26T10:24:20;2.30;;;0.98;;
73980;SDS011;62348;51.412;5.436;2023-06-26T10:26:48;3.85;;;0.82;;
73980;SDS011;62348;51.412;5.436;2023-06-26T10:29:17;3.63;;;0.82;;
73980;SDS011;62348;51.412;5.436;2023-06-26T10:31:51;3.47;;;1.40;;
73980;SDS011;62348;51.412;5.436;2023-06-26T10:34:20;2.88;;;0.75;;
73980;SDS011;62348;51.412;5.436;2023-06-26T10:36:46;5.38;;;1.00;;
73980;SDS011;62348;51.412;5.436;2023-06-26T10:39:13;5.45;;;1.13;;
73980;SDS011;62348;51.412;5.436;2023-06-26T10:41:39;3.38;;;1.17;;
73980;SDS011;62348;51.412;5.436;2023-06-26T10:44:12;4.75;;;1.05;;
73980;SDS011;62348;51.412;5.436;2023-06-26T10:46:54;2.00;;;1.00;;
73980;SDS011;62348;51.412;5.436;2023-06-26T10:49:25;2.10;;;1.02;;
73980;SDS011;62348;51.412;5.436;2023-06-26T10:51:52;6.13;;;1.15;;
73980;SDS011;62348;51.412;5.436;2023-06-26T10:54:19;2.67;;;1.00;;
73980;SDS011;62348;51.412;5.436;2023-06-26T10:56:48;2.28;;;1.00;;
73980;SDS011;62348;51.412;5.436;2023-06-26T10:59:19;1.15;;;1.00;;
73980;SDS011;62348;51.412;5.436;2023-06-26T11:02:06;1.40;;;0.90;;
73980;SDS011;62348;51.412;5.436;2023-06-26T11:07:15;3.28;;;1.42;;
73980;SDS011;62348;51.412;5.436;2023-06-26T11:10:02;2.88;;;0.98;;
73980;SDS011;62348;51.412;5.436;2023-06-26T11:12:38;3.33;;;1.40;;
73980;SDS011;62348;51.412;5.436;2023-06-26T11:15:07;2.70;;;1.10;;
73980;SDS011;62348;51.412;5.436;2023-06-26T11:17:36;4.40;;;0.90;;
73980;SDS011;62348;51.412;5.436;2023-06-26T11:20:03;1.63;;;1.08;;
73980;SDS011;62348;51.412;5.436;2023-06-26T11:22:33;2.80;;;0.82;;
73980;SDS011;62348;51.412;5.436;2023-06-26T11:25:00;7.32;;;1.17;;
73980;SDS011;62348;51.412;5.436;2023-06-26T11:27:46;3.78;;;1.10;;
73980;SDS011;62348;51.412;5.436;2023-06-26T11:30:21;5.40;;;1.40;;
73980;SDS011;62348;51.412;5.436;2023-06-26T11:32:48;2.65;;;1.10;;
73980;SDS011;62348;51.412;5.436;2023-06-26T11:35:22;7.40;;;1.40;;
73980;SDS011;62348;51.412;5.436;2023-06-26T11:37:55;4.35;;;1.40;;
73980;SDS011;62348;51.412;5.436;2023-06-26T11:40:26;5.28;;;1.50;;
73980;SDS011;62348;51.412;5.436;2023-06-26T11:42:57;4.10;;;1.45;;
73980;SDS011;62348;51.412;5.436;2023-06-26T11:45:24;3.78;;;1.27;;
73980;SDS011;62348;51.412;5.436;2023-06-26T11:47:49;3.50;;;1.00;;
73980;SDS011;62348;51.412;5.436;2023-06-26T11:50:16;2.67;;;1.13;;
73980;SDS011;62348;51.412;5.436;2023-06-26T11:52:44;3.95;;;1.30;;
73980;SDS011;62348;51.412;5.436;2023-06-26T11:55:10;3.90;;;1.25;;
73980;SDS011;62348;51.412;5.436;2023-06-26T11:57:36;9.05;;;1.33;;
73980;SDS011;62348;51.412;5.436;2023-06-26T12:00:12;3.58;;;1.27;;
73980;SDS011;62348;51.412;5.436;2023-06-26T12:02:38;9.07;;;1.80;;
73980;SDS011;62348;51.412;5.436;2023-06-26T12:05:04;2.20;;;1.27;;
73980;SDS011;62348;51.412;5.436;2023-06-26T12:07:30;2.35;;;1.10;;
73980;SDS011;62348;51.412;5.436;2023-06-26T12:09:56;4.13;;;1.10;;
73980;SDS011;62348;51.412;5.436;2023-06-26T12:12:23;6.82;;;1.10;;
73980;SDS011;62348;51.412;5.436;2023-06-26T12:14:51;5.13;;;1.17;;
73980;SDS011;62348;51.412;5.436;2023-06-26T12:17:17;1.38;;;1.10;;
73980;SDS011;62348;51.412;5.436;2023-06-26T12:19:43;5.85;;;1.17;;
73980;SDS011;62348;51.412;5.436;2023-06-26T12:22:13;3.38;;;0.93;;
73980;SDS011;62348;51.412;5.436;2023-06-26T12:24:39;6.80;;;1.80;;
73980;SDS011;62348;51.412;5.436;2023-06-26T12:27:11;9.68;;;1.65;;
73980;SDS011;62348;51.412;5.436;2023-06-26T12:29:39;1.90;;;0.98;;
73980;SDS011;62348;51.412;5.436;2023-06-26T12:32:10;3.05;;;1.33;;
73980;SDS011;62348;51.412;5.436;2023-06-26T12:34:36;4.85;;;1.48;;
73980;SDS011;62348;51.412;5.436;2023-06-26T12:37:04;4.18;;;1.35;;
73980;SDS011;62348;51.412;5.436;2023-06-26T12:39:50;2.55;;;1.40;;
73980;SDS011;62348;51.412;5.436;2023-06-26T12:42:18;1.48;;;0.90;;
73980;SDS011;62348;51.412;5.436;2023-06-26T12:44:45;4.85;;;0.80;;
73980;SDS011;62348;51.412;5.436;2023-06-26T12:47:11;3.53;;;1.10;;
73980;SDS011;62348;51.412;5.436;2023-06-26T12:49:40;6.10;;;1.30;;
73980;SDS011;62348;51.412;5.436;2023-06-26T12:52:09;2.65;;;1.17;;
73980;SDS011;62348;51.412;5.436;2023-06-26T12:54:38;4.95;;;1.38;;
73980;SDS011;62348;51.412;5.436;2023-06-26T12:57:08;2.63;;;0.90;;
73980;SDS011;62348;51.412;5.436;2023-06-26T12:59:37;2.05;;;0.88;;
73980;SDS011;62348;51.412;5.436;2023-06-26T13:02:03;2.92;;;1.02;;
73980;SDS011;62348;51.412;5.436;2023-06-26T13:04:29;2.58;;;1.20;;
73980;SDS011;62348;51.412;5.436;2023-06-26T13:06:55;4.55;;;0.93;;
73980;SDS011;62348;51.412;5.436;2023-06-26T13:09:21;4.47;;;1.10;;
73980;SDS011;62348;51.412;5.436;2023-06-26T13:11:48;4.40;;;0.95;;
73980;SDS011;62348;51.412;5.436;2023-06-26T13:14:14;2.10;;;1.08;;
73980;SDS011;62348;51.412;5.436;2023-06-26T13:16:39;1.33;;;0.90;;
73980;SDS011;62348;51.412;5.436;2023-06-26T13:19:05;3.15;;;0.95;;
73980;SDS011;62348;51.412;5.436;2023-06-26T13:21:31;4.32;;;1.73;;
73980;SDS011;62348;51.412;5.436;2023-06-26T13:23:56;3.47;;;0.70;;
73980;SDS011;62348;51.412;5.436;2023-06-26T13:26:22;8.65;;;1.20;;
73980;SDS011;62348;51.412;5.436;2023-06-26T13:28:48;1.60;;;0.98;;
73980;SDS011;62348;51.412;5.436;2023-06-26T13:31:14;7.75;;;0.98;;
73980;SDS011;62348;51.412;5.436;2023-06-26T13:33:40;1.75;;;1.08;;
73980;SDS011;62348;51.412;5.436;2023-06-26T13:36:06;2.40;;;0.93;;
73980;SDS011;62348;51.412;5.436;2023-06-26T13:38:34;2.45;;;0.90;;
73980;SDS011;62348;51.412;5.436;2023-06-26T13:41:00;1.92;;;1.00;;
73980;SDS011;62348;51.412;5.436;2023-06-26T13:43:26;3.53;;;1.02;;
73980;SDS011;62348;51.412;5.436;2023-06-26T13:45:52;2.33;;;0.80;;
73980;SDS011;62348;51.412;5.436;2023-06-26T13:48:18;1.33;;;0.80;;
73980;SDS011;62348;51.412;5.436;2023-06-26T13:50:45;3.33;;;0.93;;
73980;SDS011;62348;51.412;5.436;2023-06-26T13:53:11;2.45;;;1.00;;
73980;SDS011;62348;51.412;5.436;2023-06-26T13:55:37;1.33;;;0.70;;
73980;SDS011;62348;51.412;5.436;2023-06-26T13:58:03;4.82;;;0.85;;
73980;SDS011;62348;51.412;5.436;2023-06-26T14:00:31;2.70;;;0.80;;
73980;SDS011;62348;51.412;5.436;2023-06-26T14:02:58;4.03;;;1.02;;
73980;SDS011;62348;51.412;5.436;2023-06-26T14:05:28;2.92;;;0.82;;
73980;SDS011;62348;51.412;5.436;2023-06-26T14:08:02;1.50;;;0.70;;
73980;SDS011;62348;51.412;5.436;2023-06-26T14:10:29;3.17;;;1.00;;
73980;SDS011;62348;51.412;5.436;2023-06-26T14:12:54;1.95;;;0.98;;
73980;SDS011;62348;51.412;5.436;2023-06-26T14:15:20;1.58;;;1.00;;
73980;SDS011;62348;51.412;5.436;2023-06-26T14:17:45;3.80;;;0.98;;
73980;SDS011;62348;51.412;5.436;2023-06-26T14:20:12;3.80;;;0.75;;
73980;SDS011;62348;51.412;5.436;2023-06-26T14:22:41;4.45;;;0.93;;
73980;SDS011;62348;51.412;5.436;2023-06-26T14:25:08;2.38;;;0.77;;
73980;SDS011;62348;51.412;5.436;2023-06-26T14:27:34;1.77;;;0.80;;
73980;SDS011;62348;51.412;5.436;2023-06-26T14:29:59;4.15;;;0.88;;
73980;SDS011;62348;51.412;5.436;2023-06-26T14:32:26;2.70;;;0.90;;
73980;SDS011;62348;51.412;5.436;2023-06-26T14:34:51;1.27;;;0.82;;
73980;SDS011;62348;51.412;5.436;2023-06-26T14:37:17;2.47;;;1.00;;
73980;SDS011;62348;51.412;5.436;2023-06-26T14:39:43;2.95;;;0.80;;
73980;SDS011;62348;51.412;5.436;2023-06-26T14:42:09;3.70;;;0.85;;
73980;SDS011;62348;51.412;5.436;2023-06-26T14:44:35;4.80;;;1.20;;
73980;SDS011;62348;51.412;5.436;2023-06-26T14:47:00;3.28;;;1.13;;
73980;SDS011;62348;51.412;5.436;2023-06-26T14:49:26;3.65;;;1.33;;
73980;SDS011;62348;51.412;5.436;2023-06-26T14:51:52;3.00;;;1.20;;
73980;SDS011;62348;51.412;5.436;2023-06-26T14:54:17;2.53;;;1.30;;
73980;SDS011;62348;51.412;5.436;2023-06-26T14:56:43;2.80;;;1.05;;
73980;SDS011;62348;51.412;5.436;2023-06-26T14:59:10;1.80;;;0.95;;